Vremea acum in Victoria - Romania

Vrei sa afli care e starea vremii acum in Sibiu - Romania? Dorim sa iti furnizam starea vremii pentru Sibiu - Romania. Starea vremii Sibiu - Romania pentru astazi.

Vremea acum in Victoria

Temperatura: 22.2 °C

Este: Senin
Se simte ca: 24.5 °C
Innorat: 0 %
Precipitatii: 0 %
Presiune atmosferica: 1014 hPa
Umiditate: 38%
Vizibilitate: 10 km
Vantul bate din NNE cu 5.8 km/h

Evolutia vremii in Victoria pe ore

Ora: 11:00
Senin
Temperatura: 22.2°C
Sansa de precipitatii: 0%
Ora Descriere Temp Se simte Precipitatii Umiditate Vant
00:00Senin10.5°9.6°0%72%S 8.3 KM/H
01:00Senin10.2°9.1°0%71%SSW 8.6 KM/H
02:00Senin10°8.9°0%71%SSW 8.3 KM/H
03:00Senin9.6°8.7°0%71%SSW 7.6 KM/H
04:00Senin9.4°8.6°0%73%SSW 6.5 KM/H
05:00Senin8.4°0%74%SSW 5.8 KM/H
06:00Senin8.8°8.1°0%74%S 6.1 KM/H
07:00Senin9.7°9.3°0%73%S 5.4 KM/H
08:00Senin14.6°14.6°0%65%S 2.2 KM/H
09:00Senin17.3°17.3°0%58%ENE 2.9 KM/H
10:00Senin18.9°18.9°0%55%NE 4.3 KM/H
11:00Senin22.2°20.3°0%38%NNE 5.8 KM/H
12:00Senin21.4°21.4°0%49%NNE 7.2 KM/H
13:00Senin22.3°24.4°0%46%N 9.7 KM/H
14:00Patchy rain nearby22.8°24.5°63%45%N 10.1 KM/H
15:00Thundery outbreaks in nearby23.2°24.6°100%44%NNW 9 KM/H
16:00Patchy light rain in area with thunder22.1°24.5°100%50%WNW 6.8 KM/H
17:00Patchy light rain in area with thunder18.9°18.9°100%60%SW 8.3 KM/H
18:00Patchy rain nearby16.1°16.1°100%70%SSW 2.5 KM/H
19:00Patchy rain nearby16.9°16.9°73%70%S 5.4 KM/H
20:00Senin14.6°14.6°0%73%SSW 6.8 KM/H
21:00Patchy rain nearby12.5°12.1°100%78%SSE 6.8 KM/H
22:00Senin11.5°10.8°0%81%S 7.9 KM/H
23:00Senin10.7°9.8°0%81%SSW 8.6 KM/H




tutorials